createdAt,value
2017-11-22T00:02:11.988Z,89.80
2017-11-22T00:04:39.980Z,90.00
2017-11-22T00:07:08.336Z,90.10
2017-11-22T00:09:36.204Z,90.10
2017-11-22T00:12:03.800Z,89.60
2017-11-22T00:14:31.385Z,90.20
2017-11-22T00:16:59.693Z,89.70
2017-11-22T00:19:27.259Z,90.20
2017-11-22T00:21:54.877Z,90.30
2017-11-22T00:24:23.534Z,90.30
2017-11-22T00:26:52.687Z,90.30
2017-11-22T00:29:20.565Z,90.30
2017-11-22T00:31:48.132Z,90.40
2017-11-22T00:34:15.690Z,90.10
2017-11-22T00:36:43.287Z,90.30
2017-11-22T00:39:10.951Z,90.40
2017-11-22T00:41:38.559Z,90.40
2017-11-22T00:44:06.267Z,90.60
2017-11-22T00:46:33.843Z,90.40
2017-11-22T00:49:01.762Z,90.40
2017-11-22T00:51:29.579Z,90.40
2017-11-22T00:53:57.170Z,90.40
2017-11-22T00:56:24.806Z,90.40
2017-11-22T00:58:53.156Z,90.40
2017-11-22T01:01:20.845Z,90.40
2017-11-22T01:03:48.399Z,90.50
2017-11-22T01:06:16.164Z,90.50
2017-11-22T01:08:44.520Z,90.40
2017-11-22T01:11:12.904Z,90.40
2017-11-22T01:13:40.687Z,90.40
2017-11-22T01:16:08.279Z,90.80
2017-11-22T01:18:35.922Z,90.50
2017-11-22T01:21:03.725Z,90.40
2017-11-22T01:23:31.601Z,90.30
2017-11-22T01:25:59.254Z,90.10
2017-11-22T01:28:26.839Z,90.00
2017-11-22T01:30:54.399Z,90.00
2017-11-22T01:33:22.244Z,90.00
2017-11-22T01:35:49.857Z,89.70
2017-11-22T01:38:18.664Z,89.90
2017-11-22T01:40:46.356Z,89.90
2017-11-22T01:43:13.958Z,89.70
2017-11-22T01:45:41.528Z,89.80
2017-11-22T01:48:09.878Z,89.80
2017-11-22T01:50:38.411Z,89.70
2017-11-22T01:53:05.971Z,90.00
2017-11-22T01:55:33.531Z,90.10
2017-11-22T01:58:01.140Z,90.00
2017-11-22T02:00:40.520Z,90.00
2017-11-22T02:03:17.881Z,90.00
2017-11-22T02:05:45.471Z,90.10
2017-11-22T02:08:13.079Z,90.20
2017-11-22T02:10:40.656Z,90.30
2017-11-22T02:13:08.769Z,90.30
2017-11-22T02:15:36.359Z,90.30
2017-11-22T02:18:03.956Z,90.30
2017-11-22T02:20:31.512Z,90.10
2017-11-22T02:22:59.073Z,90.00
2017-11-22T02:25:27.425Z,90.20
2017-11-22T02:27:55.011Z,90.20
2017-11-22T02:30:22.576Z,90.20
2017-11-22T02:32:50.164Z,90.10
2017-11-22T02:35:17.793Z,90.10
2017-11-22T02:37:45.435Z,90.30
2017-11-22T02:40:13.061Z,90.30
2017-11-22T02:42:40.616Z,90.40
2017-11-22T02:45:08.356Z,90.50
2017-11-22T02:47:36.758Z,90.70
2017-11-22T02:50:05.227Z,90.30
2017-11-22T02:52:32.807Z,90.50
2017-11-22T02:55:00.613Z,90.30
2017-11-22T02:57:28.179Z,90.20
2017-11-22T02:59:56.050Z,90.30
2017-11-22T03:02:23.612Z,90.50
2017-11-22T03:04:51.781Z,90.50
2017-11-22T03:07:19.392Z,90.40
2017-11-22T03:09:47.032Z,90.40
2017-11-22T03:12:15.213Z,90.40
2017-11-22T03:14:42.824Z,90.50
2017-11-22T03:17:10.475Z,90.20
2017-11-22T03:19:38.088Z,90.30
2017-11-22T03:22:05.727Z,90.20
2017-11-22T03:24:33.328Z,90.00
2017-11-22T03:27:02.666Z,90.20
2017-11-22T03:29:34.328Z,90.20
2017-11-22T03:32:02.768Z,90.00
2017-11-22T03:34:30.419Z,90.00
2017-11-22T03:36:58.126Z,89.40
2017-11-22T03:39:25.757Z,90.10
2017-11-22T03:41:53.342Z,88.10
2017-11-22T03:44:20.970Z,89.10
2017-11-22T03:46:48.542Z,89.70
2017-11-22T03:49:16.166Z,89.10
2017-11-22T03:51:49.460Z,89.40
2017-11-22T03:54:17.855Z,89.20
2017-11-22T03:56:46.189Z,89.60
2017-11-22T03:59:13.901Z,89.20
2017-11-22T04:01:45.136Z,87.90
2017-11-22T04:04:12.738Z,87.90
2017-11-22T04:06:40.318Z,88.50
2017-11-22T04:09:07.920Z,89.40
2017-11-22T04:11:36.589Z,89.10
2017-11-22T04:14:04.171Z,88.70
2017-11-22T04:16:31.731Z,88.30
2017-11-22T04:19:05.698Z,88.10
2017-11-22T04:21:33.256Z,88.10
2017-11-22T04:24:01.097Z,88.30
2017-11-22T04:26:28.805Z,88.10
2017-11-22T04:28:56.443Z,87.40
2017-11-22T04:31:24.051Z,88.00
2017-11-22T04:33:52.209Z,88.00
2017-11-22T04:36:19.864Z,88.00
2017-11-22T04:38:47.476Z,88.10
2017-11-22T04:41:15.085Z,87.70
2017-11-22T04:43:43.471Z,87.70
2017-11-22T04:46:11.066Z,87.60
2017-11-22T04:48:39.403Z,87.20
2017-11-22T04:51:07.065Z,87.20
2017-11-22T04:53:34.672Z,87.30
2017-11-22T04:56:02.282Z,87.30
2017-11-22T04:58:29.900Z,86.70
2017-11-22T05:00:57.484Z,87.10
2017-11-22T05:03:25.044Z,86.90
2017-11-22T05:05:52.668Z,86.70
2017-11-22T05:08:20.256Z,86.70
2017-11-22T05:10:47.949Z,86.20
2017-11-22T05:13:15.542Z,86.30
2017-11-22T05:15:44.749Z,86.70
2017-11-22T05:18:12.348Z,86.70
2017-11-22T05:20:39.951Z,86.50
2017-11-22T05:23:07.735Z,85.90
2017-11-22T05:25:35.355Z,86.00
2017-11-22T05:28:02.915Z,85.80
2017-11-22T05:30:31.213Z,86.10
2017-11-22T05:32:58.822Z,85.80
2017-11-22T05:35:26.448Z,85.90
2017-11-22T05:37:55.290Z,85.60
2017-11-22T05:40:23.251Z,85.50
2017-11-22T05:42:50.832Z,85.40
2017-11-22T05:45:18.556Z,85.50
2017-11-22T05:47:46.121Z,85.40
2017-11-22T05:50:13.706Z,85.40
2017-11-22T05:52:41.276Z,85.80
2017-11-22T05:55:09.261Z,86.40
2017-11-22T05:57:36.840Z,85.30
2017-11-22T06:00:05.356Z,85.60
2017-11-22T06:02:33.037Z,85.70
2017-11-22T06:05:00.836Z,85.60
2017-11-22T06:07:28.441Z,85.80
2017-11-22T06:09:56.043Z,85.80
2017-11-22T06:12:23.613Z,85.50
2017-11-22T06:14:51.414Z,85.30
2017-11-22T06:17:19.727Z,85.20
2017-11-22T06:19:47.907Z,84.80
2017-11-22T06:22:15.576Z,84.70
2017-11-22T06:24:43.172Z,85.00
2017-11-22T06:27:11.635Z,85.20
2017-11-22T06:29:58.835Z,84.90
2017-11-22T06:32:26.391Z,84.90
2017-11-22T06:34:54.020Z,84.90
2017-11-22T06:37:21.604Z,84.50
2017-11-22T06:39:49.234Z,84.80
2017-11-22T06:42:17.347Z,84.90
2017-11-22T06:44:44.965Z,84.50
2017-11-22T06:47:12.778Z,84.50
2017-11-22T06:49:40.393Z,84.40
2017-11-22T06:52:08.464Z,84.20
2017-11-22T06:54:36.060Z,84.40
2017-11-22T06:57:03.773Z,84.50
2017-11-22T06:59:31.381Z,84.60
2017-11-22T07:01:59.056Z,84.70
2017-11-22T07:04:26.943Z,84.60
2017-11-22T07:06:54.541Z,85.40
2017-11-22T07:09:23.632Z,85.70
2017-11-22T07:11:52.122Z,85.50
2017-11-22T07:14:19.773Z,85.40
2017-11-22T07:16:53.690Z,85.10
2017-11-22T07:19:21.351Z,85.10
2017-11-22T07:21:49.143Z,84.80
2017-11-22T07:24:16.761Z,84.70
2017-11-22T07:26:45.188Z,85.30
2017-11-22T07:29:12.817Z,85.30
2017-11-22T07:31:41.220Z,84.40
2017-11-22T07:34:08.786Z,84.40
2017-11-22T07:36:42.461Z,84.20
2017-11-22T07:39:10.039Z,84.10
2017-11-22T07:41:37.772Z,83.80
2017-11-22T07:44:05.672Z,83.40
2017-11-22T07:46:33.388Z,83.30
2017-11-22T07:49:01.020Z,83.80
2017-11-22T07:51:37.382Z,83.20
2017-11-22T07:54:05.142Z,82.60
2017-11-22T07:56:33.555Z,81.20
2017-11-22T07:59:06.140Z,81.20
2017-11-22T08:01:33.863Z,81.20
2017-11-22T08:04:07.262Z,80.70
2017-11-22T08:06:34.879Z,80.80
2017-11-22T08:09:03.217Z,80.00
2017-11-22T08:11:30.996Z,80.50
2017-11-22T08:13:59.428Z,79.70
2017-11-22T08:16:27.059Z,79.80
2017-11-22T08:18:54.715Z,79.30
2017-11-22T08:21:23.696Z,79.10
2017-11-22T08:23:51.443Z,79.20
2017-11-22T08:26:19.031Z,79.10
2017-11-22T08:28:46.637Z,78.70
2017-11-22T08:31:14.201Z,79.20
2017-11-22T08:33:42.413Z,78.80
2017-11-22T08:36:10.013Z,78.20
2017-11-22T08:38:38.410Z,78.50
2017-11-22T08:41:06.996Z,78.00
2017-11-22T08:43:34.646Z,78.40
2017-11-22T08:46:02.720Z,77.80
2017-11-22T08:48:30.316Z,77.80
2017-11-22T08:50:57.948Z,78.30
2017-11-22T08:53:25.556Z,78.40
2017-11-22T08:55:58.919Z,78.50
2017-11-22T08:58:26.648Z,77.80
2017-11-22T09:00:54.999Z,77.60
2017-11-22T09:03:24.349Z,77.60
2017-11-22T09:05:57.657Z,75.90
2017-11-22T09:08:25.224Z,76.30
2017-11-22T09:10:53.260Z,75.90
2017-11-22T09:13:21.257Z,76.20
2017-11-22T09:15:48.927Z,75.50
2017-11-22T09:18:22.609Z,75.40
2017-11-22T09:20:50.303Z,74.80
2017-11-22T09:23:17.909Z,74.00
2017-11-22T09:25:45.481Z,74.30
2017-11-22T09:28:13.096Z,74.80
2017-11-22T09:30:46.220Z,74.10
2017-11-22T09:33:13.828Z,72.60
2017-11-22T09:35:41.644Z,72.80
2017-11-22T09:38:09.991Z,72.30
2017-11-22T09:40:37.845Z,72.20
2017-11-22T09:43:05.648Z,73.50
2017-11-22T09:48:10.382Z,72.90
2017-11-22T09:50:42.495Z,72.40
2017-11-22T09:53:10.209Z,73.80
2017-11-22T09:55:38.504Z,73.40
2017-11-22T09:58:06.921Z,73.80
2017-11-22T10:00:34.508Z,73.80
2017-11-22T10:03:02.076Z,73.50
2017-11-22T10:05:30.186Z,73.50
2017-11-22T10:07:58.525Z,73.10
2017-11-22T10:10:26.426Z,73.10
2017-11-22T10:12:55.278Z,73.50
2017-11-22T10:15:23.758Z,73.50
2017-11-22T10:17:51.387Z,72.50
2017-11-22T10:20:19.856Z,72.70
2017-11-22T10:22:47.527Z,72.30
2017-11-22T10:25:21.882Z,72.40
2017-11-22T10:27:56.500Z,71.90
2017-11-22T10:30:29.633Z,71.30
2017-11-22T10:32:58.007Z,70.50
2017-11-22T10:35:25.601Z,70.50
2017-11-22T10:37:53.185Z,70.00
2017-11-22T10:40:20.830Z,69.90
2017-11-22T10:42:48.404Z,71.00
2017-11-22T10:45:16.358Z,70.10
2017-11-22T10:47:44.035Z,70.00
2017-11-22T10:50:11.652Z,70.40
2017-11-22T10:52:39.439Z,71.20
2017-11-22T10:55:07.043Z,71.20
2017-11-22T10:57:34.640Z,70.60
2017-11-22T11:00:02.561Z,70.60
2017-11-22T11:02:30.157Z,70.60
2017-11-22T11:04:58.548Z,71.60
2017-11-22T11:07:27.179Z,72.10
2017-11-22T11:09:55.569Z,72.00
2017-11-22T11:12:23.147Z,71.30
2017-11-22T11:14:50.765Z,71.10
2017-11-22T11:17:18.334Z,70.40
2017-11-22T11:19:46.053Z,70.70
2017-11-22T11:22:14.396Z,71.90
2017-11-22T11:24:42.040Z,71.50
2017-11-22T11:27:09.684Z,71.50
2017-11-22T11:29:37.699Z,72.40
2017-11-22T11:32:06.191Z,71.50
2017-11-22T11:34:35.990Z,71.40
2017-11-22T11:37:03.583Z,70.20
2017-11-22T11:39:31.290Z,71.20
2017-11-22T11:41:59.683Z,70.40
2017-11-22T11:44:28.142Z,69.90
2017-11-22T11:46:55.747Z,69.90
2017-11-22T11:49:24.214Z,70.30
2017-11-22T11:51:52.837Z,70.40
2017-11-22T11:54:20.441Z,70.00
2017-11-22T11:56:47.998Z,70.30
2017-11-22T11:59:15.582Z,69.40
2017-11-22T12:01:43.242Z,70.00
2017-11-22T12:04:10.846Z,70.00
2017-11-22T12:06:39.328Z,69.40
2017-11-22T12:09:07.101Z,69.40
2017-11-22T12:11:35.787Z,70.10
2017-11-22T12:14:03.478Z,70.10
2017-11-22T12:16:31.060Z,70.30
2017-11-22T12:18:58.851Z,70.50
2017-11-22T12:21:27.293Z,70.20
2017-11-22T12:23:54.914Z,70.20
2017-11-22T12:26:23.550Z,69.60
2017-11-22T12:28:51.133Z,69.60
2017-11-22T12:31:19.776Z,68.40
2017-11-22T12:33:47.479Z,68.40
2017-11-22T12:36:15.088Z,70.80
2017-11-22T12:38:42.660Z,69.90
2017-11-22T12:41:10.433Z,69.90
2017-11-22T12:43:38.804Z,69.00
2017-11-22T12:46:06.447Z,68.90
2017-11-22T12:48:34.021Z,70.30
2017-11-22T12:51:01.834Z,69.80
2017-11-22T12:53:30.071Z,69.60
2017-11-22T12:55:58.057Z,69.90
2017-11-22T12:58:26.065Z,69.70
2017-11-22T13:00:55.220Z,70.30
2017-11-22T13:03:22.975Z,70.20
2017-11-22T13:05:54.581Z,70.30
2017-11-22T13:08:22.748Z,71.60
2017-11-22T13:10:56.204Z,70.80
2017-11-22T13:13:25.956Z,70.70
2017-11-22T13:15:57.129Z,70.60
2017-11-22T13:18:24.821Z,72.00
2017-11-22T13:20:52.588Z,70.40
2017-11-22T13:23:21.746Z,71.60
2017-11-22T13:25:50.586Z,70.40
2017-11-22T13:28:18.214Z,71.30
2017-11-22T13:30:47.866Z,71.20
2017-11-22T13:33:16.498Z,70.10
2017-11-22T13:35:44.089Z,70.10
2017-11-22T13:38:11.678Z,70.80
2017-11-22T13:40:39.818Z,71.70
2017-11-22T13:43:07.581Z,72.70
2017-11-22T13:45:35.484Z,71.10
2017-11-22T13:48:03.315Z,70.60
2017-11-22T13:50:30.972Z,70.30
2017-11-22T13:52:58.865Z,71.40
2017-11-22T13:55:26.483Z,70.90
2017-11-22T13:57:54.067Z,70.90
2017-11-22T14:00:21.665Z,71.00
2017-11-22T14:02:49.302Z,71.40
2017-11-22T14:05:17.055Z,70.40
2017-11-22T14:07:44.617Z,71.00
2017-11-22T14:10:12.380Z,70.60
2017-11-22T14:12:40.102Z,71.20
2017-11-22T14:15:07.921Z,70.80
2017-11-22T14:17:36.296Z,71.30
2017-11-22T14:20:03.907Z,71.30
2017-11-22T14:22:32.252Z,71.20
2017-11-22T14:24:59.848Z,71.20
2017-11-22T14:27:27.448Z,70.70
2017-11-22T14:29:55.348Z,71.00
2017-11-22T14:32:22.976Z,70.70
2017-11-22T14:34:50.548Z,71.40
2017-11-22T14:37:18.293Z,71.40
2017-11-22T14:39:46.069Z,71.50
2017-11-22T14:42:13.832Z,71.40
2017-11-22T14:44:41.442Z,71.80
2017-11-22T14:47:09.820Z,71.30
2017-11-22T14:49:37.426Z,71.30
2017-11-22T14:52:05.095Z,72.80
2017-11-22T14:54:32.793Z,71.50
2017-11-22T14:57:00.397Z,72.70
2017-11-22T14:59:28.130Z,72.00
2017-11-22T15:01:56.630Z,74.20
2017-11-22T15:04:24.990Z,73.70
2017-11-22T15:06:52.575Z,73.80
2017-11-22T15:09:20.142Z,72.90
2017-11-22T15:11:47.724Z,73.20
2017-11-22T15:14:15.305Z,72.70
2017-11-22T15:16:42.888Z,72.50
2017-11-22T15:19:10.524Z,73.10
2017-11-22T15:21:38.270Z,72.80
2017-11-22T15:24:05.886Z,72.90
2017-11-22T15:26:33.637Z,73.50
2017-11-22T15:29:02.001Z,73.10
2017-11-22T15:31:29.653Z,73.20
2017-11-22T15:33:58.119Z,74.90
2017-11-22T15:36:25.712Z,73.00
2017-11-22T15:38:54.432Z,74.20
2017-11-22T15:41:22.070Z,74.20
2017-11-22T15:43:49.872Z,73.30
2017-11-22T15:46:17.463Z,72.70
2017-11-22T15:48:45.097Z,73.30
2017-11-22T15:51:13.703Z,73.20
2017-11-22T15:53:41.466Z,72.80
2017-11-22T15:56:09.067Z,73.20
2017-11-22T15:58:36.640Z,73.00
2017-11-22T16:01:05.579Z,73.50
2017-11-22T16:03:33.565Z,73.50
2017-11-22T16:06:01.136Z,73.70
2017-11-22T16:08:28.734Z,73.10
2017-11-22T16:10:57.250Z,72.30
2017-11-22T16:13:25.053Z,72.70
2017-11-22T16:15:52.914Z,72.00
2017-11-22T16:18:20.709Z,73.30
2017-11-22T16:20:49.054Z,71.80
2017-11-22T16:23:16.745Z,71.70
2017-11-22T16:25:45.121Z,72.10
2017-11-22T16:28:12.834Z,72.10
2017-11-22T16:30:40.401Z,72.90
2017-11-22T16:33:07.977Z,71.90
2017-11-22T16:35:35.535Z,73.40
2017-11-22T16:38:03.329Z,72.40
2017-11-22T16:40:31.695Z,73.10
2017-11-22T16:42:59.329Z,72.20
2017-11-22T16:45:26.929Z,71.90
2017-11-22T16:47:54.712Z,73.00
2017-11-22T16:50:22.615Z,74.10
2017-11-22T16:52:50.422Z,71.60
2017-11-22T16:55:17.986Z,71.90
2017-11-22T16:57:46.161Z,72.40
2017-11-22T17:00:13.724Z,72.90
2017-11-22T17:02:41.552Z,73.40
2017-11-22T17:05:09.176Z,72.70
2017-11-22T17:07:36.782Z,73.60
2017-11-22T17:10:04.411Z,74.10
2017-11-22T17:12:32.200Z,73.90
2017-11-22T17:14:59.764Z,74.20
2017-11-22T17:17:27.425Z,74.20
2017-11-22T17:19:55.177Z,72.90
2017-11-22T17:22:22.752Z,72.90
2017-11-22T17:24:51.031Z,74.40
2017-11-22T17:27:18.589Z,74.80
2017-11-22T17:29:46.205Z,73.30
2017-11-22T17:32:13.781Z,71.90
2017-11-22T17:34:41.359Z,71.70
2017-11-22T17:37:09.059Z,71.80
2017-11-22T17:39:36.732Z,71.50
2017-11-22T17:42:05.101Z,72.90
2017-11-22T17:44:32.724Z,72.80
2017-11-22T17:47:00.281Z,73.50
2017-11-22T17:49:28.112Z,74.70
2017-11-22T17:51:55.861Z,75.10
2017-11-22T17:54:24.296Z,75.00
2017-11-22T17:56:53.289Z,74.90
2017-11-22T17:59:20.925Z,75.40
2017-11-22T18:01:51.151Z,75.10
2017-11-22T18:04:20.342Z,75.50
2017-11-22T18:06:47.936Z,75.70
2017-11-22T18:09:15.836Z,76.90
2017-11-22T18:11:43.509Z,76.40
2017-11-22T18:14:11.224Z,77.00
2017-11-22T18:16:38.850Z,77.00
2017-11-22T18:19:06.582Z,76.60
2017-11-22T18:21:34.188Z,76.50
2017-11-22T18:24:01.899Z,76.60
2017-11-22T18:26:29.718Z,76.80
2017-11-22T18:28:57.339Z,76.70
2017-11-22T18:31:24.936Z,77.30
2017-11-22T18:33:52.515Z,77.20
2017-11-22T18:36:20.919Z,77.30
2017-11-22T18:38:48.573Z,77.40
2017-11-22T18:41:16.172Z,77.80
2017-11-22T18:43:43.744Z,78.00
2017-11-22T18:46:12.494Z,78.10
2017-11-22T18:48:40.078Z,78.00
2017-11-22T18:51:08.543Z,78.60
2017-11-22T18:53:36.164Z,78.20
2017-11-22T18:56:03.744Z,78.30
2017-11-22T18:58:31.348Z,78.40
2017-11-22T19:01:00.594Z,78.90
2017-11-22T19:03:28.239Z,78.70
2017-11-22T19:05:55.851Z,78.90
2017-11-22T19:08:23.426Z,79.00
2017-11-22T19:10:52.274Z,79.70
2017-11-22T19:13:20.039Z,79.30
2017-11-22T19:15:47.699Z,79.40
2017-11-22T19:18:15.486Z,79.50
2017-11-22T19:20:43.108Z,79.90
2017-11-22T19:23:10.684Z,79.70
2017-11-22T19:25:38.272Z,79.90
2017-11-22T19:28:05.856Z,79.90
2017-11-22T19:30:33.502Z,80.00
2017-11-22T19:33:01.100Z,80.00
2017-11-22T19:35:28.739Z,80.10
2017-11-22T19:37:56.349Z,80.40
2017-11-22T19:40:23.939Z,80.40
2017-11-22T19:42:53.416Z,80.80
2017-11-22T19:45:21.698Z,80.40
2017-11-22T19:47:49.767Z,80.60
2017-11-22T19:50:18.353Z,80.70
2017-11-22T19:52:46.232Z,80.70
2017-11-22T19:55:13.894Z,80.30
2017-11-22T19:57:41.745Z,80.40
2017-11-22T20:00:10.435Z,80.60
2017-11-22T20:02:39.216Z,80.40
2017-11-22T20:05:06.931Z,80.40
2017-11-22T20:07:47.237Z,80.80
2017-11-22T20:10:16.641Z,80.90
2017-11-22T20:12:45.123Z,80.90
2017-11-22T20:15:13.471Z,80.70
2017-11-22T20:17:41.037Z,80.60
2017-11-22T20:20:09.469Z,80.80
2017-11-22T20:22:37.617Z,80.90
2017-11-22T20:25:06.103Z,80.90
2017-11-22T20:27:33.820Z,81.10
2017-11-22T20:30:01.439Z,81.00
2017-11-22T20:32:29.040Z,81.30
2017-11-22T20:34:57.152Z,81.40
2017-11-22T20:37:24.961Z,81.30
2017-11-22T20:39:52.835Z,81.80
2017-11-22T20:42:21.171Z,81.50
2017-11-22T20:44:48.812Z,81.50
2017-11-22T20:47:16.493Z,82.20
2017-11-22T20:49:44.270Z,81.60
2017-11-22T20:52:13.113Z,81.40
2017-11-22T20:54:41.869Z,81.50
2017-11-22T20:57:10.118Z,81.50
2017-11-22T20:59:38.081Z,81.80
2017-11-22T21:02:07.472Z,81.70
2017-11-22T21:04:35.431Z,81.70
2017-11-22T21:07:03.834Z,81.60
2017-11-22T21:09:31.698Z,81.90
2017-11-22T21:11:59.875Z,81.90
2017-11-22T21:14:27.639Z,81.80
2017-11-22T21:16:55.208Z,82.10
2017-11-22T21:19:22.808Z,81.90
2017-11-22T21:21:51.746Z,81.90
2017-11-22T21:24:19.723Z,82.10
2017-11-22T21:26:47.904Z,82.40
2017-11-22T21:29:15.608Z,82.40
2017-11-22T21:31:43.964Z,82.40
2017-11-22T21:34:11.938Z,82.80
2017-11-22T21:36:40.907Z,82.90
2017-11-22T21:39:08.507Z,82.90
2017-11-22T21:41:37.137Z,82.90
2017-11-22T21:44:04.757Z,82.70
2017-11-22T21:46:33.816Z,82.20
2017-11-22T21:49:01.572Z,82.80
2017-11-22T21:51:29.366Z,83.00
2017-11-22T21:53:57.840Z,83.10
2017-11-22T21:56:25.915Z,82.90
2017-11-22T21:58:53.476Z,82.90
2017-11-22T22:01:21.157Z,82.90
2017-11-22T22:03:49.007Z,83.10
2017-11-22T22:06:16.566Z,83.10
2017-11-22T22:08:44.740Z,83.30
2017-11-22T22:11:12.823Z,83.50
2017-11-22T22:13:40.858Z,83.20
2017-11-22T22:16:08.472Z,83.40
2017-11-22T22:18:37.224Z,83.30
2017-11-22T22:21:04.798Z,83.20
2017-11-22T22:23:32.573Z,83.10
2017-11-22T22:26:00.944Z,83.50
2017-11-22T22:28:28.520Z,83.50
2017-11-22T22:30:56.827Z,83.50
2017-11-22T22:33:24.850Z,83.50
2017-11-22T22:38:27.573Z,83.30
2017-11-22T22:40:55.902Z,83.30
2017-11-22T22:43:24.293Z,83.30
2017-11-22T22:45:52.212Z,83.30
2017-11-22T22:48:20.106Z,83.20
2017-11-22T22:50:48.186Z,83.30
2017-11-22T22:53:16.062Z,83.30
2017-11-22T22:55:43.913Z,83.20
2017-11-22T22:58:11.599Z,83.30
2017-11-22T23:00:40.009Z,82.90
2017-11-22T23:03:07.640Z,83.20
2017-11-22T23:05:35.270Z,82.90
2017-11-22T23:08:02.842Z,83.20
2017-11-22T23:10:30.941Z,83.10
2017-11-22T23:12:58.561Z,83.00
2017-11-22T23:15:26.151Z,82.90
2017-11-22T23:17:53.898Z,82.90
2017-11-22T23:20:21.498Z,83.10
2017-11-22T23:22:49.066Z,82.80
2017-11-22T23:25:16.680Z,83.00
2017-11-22T23:27:44.288Z,82.90
2017-11-22T23:30:12.641Z,83.00
2017-11-22T23:32:40.244Z,82.90
2017-11-22T23:35:07.945Z,83.10
2017-11-22T23:37:35.539Z,82.90
2017-11-22T23:40:04.031Z,83.20
2017-11-22T23:42:31.800Z,83.10
2017-11-22T23:44:59.855Z,83.20
2017-11-22T23:47:27.476Z,83.20
2017-11-22T23:49:55.048Z,83.20
2017-11-22T23:52:22.728Z,83.40
2017-11-22T23:54:50.299Z,83.20
2017-11-22T23:57:17.870Z,83.30
2017-11-22T23:59:45.520Z,83.30
